createdAt,value
2023-04-20T00:04:30.539Z,-1.7
2023-04-20T00:09:27.269Z,-2.1
2023-04-20T00:15:37.835Z,-1.8
2023-04-20T00:20:34.278Z,-1.7
2023-04-20T00:25:30.783Z,-1.4
2023-04-20T00:30:27.487Z,-2
2023-04-20T00:36:38.045Z,-1.6
2023-04-20T00:41:34.532Z,-1.2
2023-04-20T00:46:31.100Z,-1.6
2023-04-20T00:51:27.614Z,-1.7
2023-04-20T00:57:38.452Z,-1.4
2023-04-20T01:02:34.970Z,-1.1
2023-04-20T01:07:31.303Z,-1.1
2023-04-20T01:12:27.840Z,-0.8
2023-04-20T01:18:38.600Z,-0.8
2023-04-20T01:23:35.172Z,-0.9
2023-04-20T01:28:31.582Z,-0.9
2023-04-20T01:33:28.117Z,-0.9
2023-04-20T01:38:24.656Z,-0.6
2023-04-20T01:44:35.396Z,-0.4
2023-04-20T01:49:31.866Z,-0.7
2023-04-20T01:54:28.395Z,-0.3
2023-04-20T02:00:39.103Z,0.1
2023-04-20T02:05:35.680Z,0.1
2023-04-20T02:10:32.161Z,0.3
2023-04-20T02:15:28.676Z,0.5
2023-04-20T02:26:36.011Z,0.9
2023-04-20T02:31:32.436Z,1
2023-04-20T02:36:28.946Z,1
2023-04-20T02:41:25.526Z,1
2023-04-20T02:47:36.302Z,1.3
2023-04-20T02:52:32.662Z,1.3
2023-04-20T02:57:29.208Z,1.8
2023-04-20T03:02:25.970Z,1.6
2023-04-20T03:08:36.407Z,1.5
2023-04-20T03:13:32.935Z,1.2
2023-04-20T03:18:29.593Z,1.3
2023-04-20T03:23:26.009Z,1.1
2023-04-20T03:29:36.663Z,1
2023-04-20T03:34:33.212Z,1.3
2023-04-20T03:39:29.791Z,1.4
2023-04-20T03:44:26.360Z,1.3
2023-04-20T03:50:37.062Z,1.8
2023-04-20T03:55:33.477Z,2.6
2023-04-20T04:00:30.059Z,3.3
2023-04-20T04:11:37.401Z,3.5
2023-04-20T04:16:33.757Z,3.7
2023-04-20T04:21:30.337Z,3.7
2023-04-20T04:26:26.961Z,3.8
2023-04-20T04:32:37.568Z,3.5
2023-04-20T04:37:34.051Z,3.1
2023-04-20T04:42:30.534Z,3.3
2023-04-20T04:47:27.339Z,3.3
2023-04-20T04:53:37.721Z,4.6
2023-04-20T04:58:34.266Z,5.5
2023-04-20T05:03:30.893Z,5.5
2023-04-20T05:08:27.581Z,5.9
2023-04-20T05:14:38.073Z,5.8
2023-04-20T05:19:34.539Z,6.4
2023-04-20T05:24:31.066Z,6.6
2023-04-20T05:29:27.664Z,6.7
2023-04-20T05:35:38.306Z,6.7
2023-04-20T05:40:34.841Z,6.7
2023-04-20T05:45:31.343Z,6.4
2023-04-20T05:50:27.864Z,6.3
2023-04-20T05:56:38.594Z,6.7
2023-04-20T06:01:35.070Z,6.5
2023-04-20T06:06:31.560Z,6.5
2023-04-20T06:16:24.754Z,7.2
2023-04-20T06:22:35.345Z,7.3
2023-04-20T06:27:31.887Z,6.9
2023-04-20T06:32:28.402Z,6.9
2023-04-20T06:38:39.340Z,6.8
2023-04-20T06:43:35.780Z,6.8
2023-04-20T06:48:33.133Z,6.9
2023-04-20T06:53:28.847Z,6.8
2023-04-20T06:58:25.461Z,6.8
2023-04-20T07:04:36.250Z,6.7
2023-04-20T07:09:32.612Z,7
2023-04-20T07:14:29.343Z,7.5
2023-04-20T07:19:25.783Z,7.6
2023-04-20T07:25:36.423Z,7.6
2023-04-20T07:30:32.917Z,7.9
2023-04-20T07:35:29.492Z,8.1
2023-04-20T07:40:26.124Z,7.9
2023-04-20T07:46:36.725Z,8.6
2023-04-20T07:51:33.154Z,8.9
2023-04-20T07:56:29.735Z,8.7
2023-04-20T08:01:26.522Z,9
2023-04-20T08:07:37.053Z,8.9
2023-04-20T08:12:33.503Z,9.2
2023-04-20T08:17:30.071Z,9.3
2023-04-20T08:22:26.552Z,9.8
2023-04-20T08:28:37.395Z,10
2023-04-20T08:33:33.745Z,9.5
2023-04-20T08:38:33.776Z,9.4
2023-04-20T08:49:37.692Z,10
2023-04-20T08:54:35.290Z,10.1
2023-04-20T08:59:30.372Z,9.5
2023-04-20T09:04:27.786Z,9.4
2023-04-20T09:10:37.989Z,8.7
2023-04-20T09:15:34.407Z,8.1
2023-04-20T09:20:30.752Z,8.3
2023-04-20T09:25:29.007Z,7.9
2023-04-20T09:31:37.831Z,7.6
2023-04-20T09:36:34.246Z,8.3
2023-04-20T09:41:30.752Z,8.2
2023-04-20T09:46:27.558Z,7.8
2023-04-20T09:52:37.967Z,7.4
2023-04-20T09:57:34.520Z,7.3
2023-04-20T10:02:31.118Z,7.3
2023-04-20T10:07:27.814Z,6.9
2023-04-20T10:13:38.239Z,6.9
2023-04-20T10:18:34.939Z,6.3
2023-04-20T10:23:31.329Z,6.5
2023-04-20T10:28:27.982Z,5.3
2023-04-20T10:34:38.593Z,5.5
2023-04-20T10:39:35.067Z,5.3
2023-04-20T10:44:31.558Z,6.1
2023-04-20T10:49:28.119Z,5.4
2023-04-20T10:55:38.798Z,5.9
2023-04-20T11:00:35.331Z,6.2
2023-04-20T11:05:31.844Z,6.1
2023-04-20T11:10:28.365Z,6.2
2023-04-20T11:15:24.982Z,5.8
2023-04-20T11:21:35.644Z,5.5
2023-04-20T11:26:32.111Z,5.5
2023-04-20T11:31:28.740Z,5.5
2023-04-20T11:36:25.282Z,5.7
2023-04-20T11:42:35.981Z,5.1
2023-04-20T11:46:26.563Z,5.9
2023-04-20T11:52:37.183Z,5.5
2023-04-20T11:57:33.620Z,4.7
2023-04-20T12:02:30.260Z,5.5
2023-04-20T12:07:26.803Z,5.4
2023-04-20T12:13:37.378Z,4.9
2023-04-20T12:18:33.901Z,5.3
2023-04-20T12:23:30.477Z,5
2023-04-20T12:28:27.078Z,6.8
2023-04-20T12:34:37.753Z,5.6
2023-04-20T12:39:34.169Z,4.9
2023-04-20T12:44:30.678Z,5.6
2023-04-20T12:49:27.576Z,4.4
2023-04-20T12:55:37.981Z,3.5
2023-04-20T13:00:34.458Z,5.2
2023-04-20T13:05:30.933Z,4.4
2023-04-20T13:07:59.611Z,3.2
2023-04-20T13:10:27.728Z,4.8
2023-04-20T13:16:38.258Z,5.8
2023-04-20T13:21:34.684Z,4.3
2023-04-20T13:26:31.206Z,4.9
2023-04-20T13:31:27.962Z,3.8
2023-04-20T13:37:39.215Z,5.1
2023-04-20T13:42:34.965Z,5.4
2023-04-20T13:47:31.713Z,4.1
2023-04-20T13:52:28.137Z,5.2
2023-04-20T13:58:38.827Z,3.3
2023-04-20T14:03:35.340Z,3.7
2023-04-20T14:08:31.763Z,4.4
2023-04-20T14:13:28.307Z,4.8
2023-04-20T14:19:39.054Z,4.4
2023-04-20T14:20:53.092Z,4.2
2023-04-20T14:24:35.490Z,3.7
2023-04-20T14:29:32.019Z,3.1
2023-04-20T14:34:28.549Z,2.5
2023-04-20T14:39:25.150Z,2.8
2023-04-20T14:45:35.795Z,3.8
2023-04-20T14:55:28.803Z,4.3
2023-04-20T15:00:25.403Z,4.4
2023-04-20T15:06:36.047Z,5.1
2023-04-20T15:11:32.599Z,4.4
2023-04-20T15:16:29.058Z,5.7
2023-04-20T15:27:36.297Z,6.1
2023-04-20T15:32:32.883Z,5.7
2023-04-20T15:37:29.360Z,3.8
2023-04-20T15:42:25.947Z,2.7
2023-04-20T15:48:36.645Z,3.2
2023-04-20T15:53:33.192Z,2.3
2023-04-20T15:58:29.661Z,2.6
2023-04-20T16:03:26.460Z,2.3
2023-04-20T16:09:36.888Z,2.6
2023-04-20T16:14:33.593Z,2.8
2023-04-20T16:19:30.249Z,3.2
2023-04-20T16:24:26.791Z,3.8
2023-04-20T16:30:37.684Z,4.4
2023-04-20T16:35:33.938Z,4.5
2023-04-20T16:40:30.334Z,5.2
2023-04-20T16:45:27.152Z,6.1
2023-04-20T16:51:37.734Z,8
2023-04-20T16:56:34.239Z,7.7
2023-04-20T17:01:30.854Z,7.9
2023-04-20T17:06:27.407Z,7.7
2023-04-20T17:12:39.767Z,8.2
2023-04-20T17:17:34.549Z,8.5
2023-04-20T17:22:30.986Z,8.9
2023-04-20T17:27:28.032Z,9
2023-04-20T17:33:38.413Z,9.4
2023-04-20T17:38:34.728Z,9.3
2023-04-20T17:43:31.329Z,9.3
2023-04-20T17:48:27.920Z,9.5
2023-04-20T17:54:38.434Z,9.5
2023-04-20T17:59:34.996Z,9.6
2023-04-20T18:04:31.872Z,9.2
2023-04-20T18:09:28.600Z,9.1
2023-04-20T18:15:38.762Z,8.8
2023-04-20T18:20:35.267Z,8.7
2023-04-20T18:25:31.560Z,8.7
2023-04-20T18:30:28.532Z,8.6
2023-04-20T18:35:25.076Z,8.5
2023-04-20T18:41:35.563Z,8.2
2023-04-20T18:46:32.122Z,8
2023-04-20T18:51:28.744Z,8.4
2023-04-20T18:56:25.349Z,8.3
2023-04-20T19:02:36.021Z,8.5
2023-04-20T19:07:32.314Z,8.4
2023-04-20T19:12:28.916Z,8.5
2023-04-20T19:17:25.590Z,8.3
2023-04-20T19:23:36.060Z,8.2
2023-04-20T19:28:32.606Z,8
2023-04-20T19:33:29.042Z,8
2023-04-20T19:38:25.815Z,7.9
2023-04-20T19:44:36.398Z,7.7
2023-04-20T19:49:32.819Z,7.9
2023-04-20T19:54:29.350Z,7.7
2023-04-20T20:00:40.071Z,7.9
2023-04-20T20:05:36.646Z,8.1
2023-04-20T20:10:33.065Z,8
2023-04-20T20:15:29.689Z,7.9
2023-04-20T20:20:26.199Z,7.9
2023-04-20T20:26:36.988Z,7.5
2023-04-20T20:31:33.576Z,7.5
2023-04-20T20:36:29.839Z,7.4
2023-04-20T20:41:26.493Z,7.4
2023-04-20T20:47:37.325Z,7.4
2023-04-20T20:52:33.937Z,7.2
2023-04-20T20:57:30.176Z,7.4
2023-04-20T21:02:26.933Z,7.3
2023-04-20T21:08:37.633Z,7.4
2023-04-20T21:13:33.751Z,7.3
2023-04-20T21:18:30.195Z,7.5
2023-04-20T21:23:26.763Z,7.6
2023-04-20T21:29:37.429Z,7.4
2023-04-20T21:34:33.991Z,7.4
2023-04-20T21:39:30.435Z,7.3
2023-04-20T21:44:27.039Z,7
2023-04-20T21:50:37.619Z,7.2
2023-04-20T21:55:34.184Z,7.3
2023-04-20T22:00:30.661Z,7.2
2023-04-20T22:05:27.223Z,7.1
2023-04-20T22:11:38.001Z,7
2023-04-20T22:16:34.439Z,7
2023-04-20T22:21:30.942Z,6.9
2023-04-20T22:26:27.596Z,7
2023-04-20T22:32:38.246Z,7.4
2023-04-20T22:37:34.746Z,7.4
2023-04-20T22:42:31.246Z,7.4
2023-04-20T22:47:27.910Z,7.2
2023-04-20T22:53:38.467Z,7.2
2023-04-20T22:58:35.017Z,7.2
2023-04-20T23:03:31.628Z,7.1
2023-04-20T23:08:28.194Z,7.2
2023-04-20T23:14:38.677Z,7.3
2023-04-20T23:19:35.199Z,7.3
2023-04-20T23:24:31.715Z,7.1
2023-04-20T23:29:28.447Z,7.1
2023-04-20T23:35:39.071Z,7
2023-04-20T23:40:35.475Z,7.1
2023-04-20T23:45:32.028Z,7
2023-04-20T23:50:28.686Z,7.1
2023-04-20T23:55:25.154Z,7
